Time;durP1;ratioP1;P1;durP2;ratioP2;P2;SDS_P1;SDS_P2;PMS_P1;PMS_P2;Temp;Humidity;BMP_temperature;BMP_pressure;BME280_temperature;BME280_humidity;BME280_pressure;Samples;Min_cycle;Max_cycle;Signal;HPM_P1;HPM_P2
2022/08/06 00:01:27;;;;;;;1.10;0.80;;;19.50;53.00;;;;;;5077246;28;20206;-37
2022/08/06 00:03:57;;;;;;;1.23;0.60;;;19.50;52.90;;;;;;5076088;28;20213;-37
2022/08/06 00:06:30;;;;;;;2.45;0.68;;;19.60;52.90;;;;;;5089453;28;20218;-37
2022/08/06 00:09:00;;;;;;;3.08;0.50;;;19.60;53.00;;;;;;5096586;28;20198;-36
2022/08/06 00:11:31;;;;;;;2.72;0.60;;;19.60;53.00;;;;;;5096932;28;20205;-37
2022/08/06 00:14:02;;;;;;;1.85;0.75;;;19.60;53.00;;;;;;5097332;28;20193;-37
2022/08/06 00:16:33;;;;;;;3.80;0.80;;;19.60;53.00;;;;;;5096321;28;20290;-37
2022/08/06 00:19:03;;;;;;;2.53;0.60;;;19.60;53.00;;;;;;5087424;28;20658;-45
2022/08/06 00:21:36;;;;;;;3.75;0.80;;;19.60;53.00;;;;;;5085760;28;20197;-37
2022/08/06 00:24:07;;;;;;;0.77;0.50;;;19.60;53.00;;;;;;5093842;28;20198;-37
2022/08/06 00:26:38;;;;;;;2.97;0.70;;;19.70;53.00;;;;;;5084887;28;20226;-38
2022/08/06 00:29:13;;;;;;;1.10;0.73;;;19.70;53.00;;;;;;5072562;28;20198;-40
2022/08/06 00:31:44;;;;;;;1.27;0.80;;;19.70;53.00;;;;;;5071041;28;20197;-37
2022/08/06 00:34:14;;;;;;;1.83;0.60;;;19.70;53.00;;;;;;5072913;28;20222;-37
2022/08/06 00:36:47;;;;;;;2.15;0.70;;;19.70;52.90;;;;;;5072492;28;20662;-37
2022/08/06 00:39:18;;;;;;;1.52;0.68;;;19.70;52.90;;;;;;5073123;28;20195;-37
2022/08/06 00:41:49;;;;;;;2.67;0.70;;;19.70;52.90;;;;;;5073059;28;20195;-41
2022/08/06 00:44:20;;;;;;;2.25;0.73;;;19.70;52.80;;;;;;5072052;28;20294;-39
2022/08/06 00:46:50;;;;;;;1.17;0.80;;;19.80;52.90;;;;;;5073233;28;20226;-40
2022/08/06 00:49:21;;;;;;;1.15;0.60;;;19.70;53.00;;;;;;5061751;28;20195;-36
2022/08/06 00:51:54;;;;;;;1.38;0.73;;;19.80;52.90;;;;;;5079563;28;20194;-40
2022/08/06 00:54:25;;;;;;;1.08;0.50;;;19.80;52.90;;;;;;5093085;28;20214;-40
2022/08/06 00:56:56;;;;;;;0.70;0.50;;;19.80;52.90;;;;;;5082335;28;20200;-37
2022/08/06 00:59:26;;;;;;;0.75;0.60;;;19.80;52.90;;;;;;5072539;28;20195;-37
2022/08/06 01:01:57;;;;;;;1.00;0.60;;;19.80;52.90;;;;;;5072731;28;20199;-42
2022/08/06 01:04:28;;;;;;;1.75;0.98;;;19.80;52.80;;;;;;5072110;28;20230;-36
2022/08/06 01:07:00;;;;;;;3.83;0.70;;;19.90;52.80;;;;;;5072354;28;20226;-44
2022/08/06 01:09:31;;;;;;;2.33;0.63;;;19.90;52.80;;;;;;5072123;28;20199;-37
2022/08/06 01:12:02;;;;;;;0.95;0.70;;;19.90;52.90;;;;;;5070270;28;20199;-37
2022/08/06 01:14:32;;;;;;;1.10;0.60;;;19.90;52.90;;;;;;5072170;28;20219;-37
2022/08/06 01:17:07;;;;;;;1.25;0.60;;;19.90;52.90;;;;;;5071693;28;20187;-40
2022/08/06 01:19:50;;;;;;;1.23;0.70;;;19.90;52.90;;;;;;5072416;28;20563;-43
2022/08/06 01:22:45;;;;;;;0.32;0.32;;;19.90;52.90;;;;;;5088232;28;20197;-43
2022/08/06 01:25:38;;;;;;;1.77;0.60;;;19.90;52.90;;;;;;5092550;28;20706;-37
2022/08/06 01:28:15;;;;;;;0.90;0.60;;;19.90;52.90;;;;;;5072088;28;20230;-36
2022/08/06 01:30:50;;;;;;;0.60;0.57;;;19.90;52.90;;;;;;5071714;28;20201;-41
2022/08/06 01:33:28;;;;;;;2.17;0.80;;;19.90;52.90;;;;;;5071677;28;20642;-36
2022/08/06 01:36:02;;;;;;;1.10;0.60;;;19.90;52.90;;;;;;5072118;28;20280;-39
2022/08/06 01:38:37;;;;;;;1.38;0.80;;;19.90;52.90;;;;;;5070749;28;20201;-36
2022/08/06 01:41:10;;;;;;;1.52;0.60;;;20.00;53.00;;;;;;5071887;28;20190;-38
2022/08/06 01:43:45;;;;;;;1.60;0.70;;;20.00;53.10;;;;;;5072187;28;20201;-36
2022/08/06 01:46:18;;;;;;;2.55;1.02;;;20.00;53.20;;;;;;5071881;28;20197;-43
2022/08/06 01:48:49;;;;;;;2.13;1.00;;;19.90;53.30;;;;;;5064818;28;20195;-37
2022/08/06 01:51:20;;;;;;;2.13;1.02;;;20.00;53.30;;;;;;5063541;28;20189;-36
2022/08/06 01:53:51;;;;;;;1.73;0.75;;;20.00;53.30;;;;;;5092201;28;20205;-36
2022/08/06 01:56:23;;;;;;;2.42;0.90;;;20.00;53.30;;;;;;5085974;28;20210;-42
2022/08/06 01:58:58;;;;;;;1.77;1.02;;;20.00;53.30;;;;;;5072261;28;20214;-39
2022/08/06 02:01:32;;;;;;;1.33;1.08;;;20.00;53.30;;;;;;5071189;28;20202;-36
2022/08/06 02:04:05;;;;;;;2.33;0.80;;;20.00;53.40;;;;;;5071123;28;20197;-39
2022/08/06 02:06:39;;;;;;;2.15;0.93;;;20.00;53.30;;;;;;5071181;28;20191;-39
2022/08/06 02:09:14;;;;;;;1.20;0.77;;;20.00;53.30;;;;;;5071149;28;20199;-36
2022/08/06 02:11:45;;;;;;;2.33;1.02;;;20.00;53.30;;;;;;5071669;28;20642;-36
2022/08/06 02:14:20;;;;;;;2.58;1.10;;;20.00;53.30;;;;;;5070797;28;20229;-37
2022/08/06 02:16:52;;;;;;;2.67;1.00;;;20.00;53.40;;;;;;5070698;28;20194;-36
2022/08/06 02:19:25;;;;;;;1.60;0.88;;;20.00;53.40;;;;;;5070830;28;20194;-38
2022/08/06 02:21:59;;;;;;;2.47;0.95;;;20.00;53.50;;;;;;5070794;28;20670;-36
2022/08/06 02:24:31;;;;;;;1.95;0.80;;;20.00;53.50;;;;;;5070790;28;20256;-36
2022/08/06 02:27:03;;;;;;;2.67;1.10;;;20.00;53.50;;;;;;5070686;28;20229;-37
2022/08/06 02:29:37;;;;;;;1.98;1.00;;;20.00;53.50;;;;;;5070917;28;20564;-37
2022/08/06 02:32:08;;;;;;;0.93;0.85;;;19.90;53.50;;;;;;5070847;28;20281;-37
2022/08/06 02:34:39;;;;;;;1.75;1.00;;;20.00;53.50;;;;;;5070524;28;20225;-39
2022/08/06 02:37:15;;;;;;;1.75;0.88;;;20.00;53.50;;;;;;5081033;28;20190;-36
2022/08/06 02:39:50;;;;;;;1.83;1.15;;;20.00;53.50;;;;;;5090325;28;20198;-61
2022/08/06 02:42:26;;;;;;;2.50;0.90;;;20.00;53.60;;;;;;5089924;28;20204;-40
2022/08/06 02:45:04;;;;;;;1.88;1.10;;;20.00;53.60;;;;;;5091208;28;20697;-43
2022/08/06 02:47:51;;;;;;;2.03;0.80;;;19.90;53.50;;;;;;5090800;28;20218;-41
2022/08/06 02:50:27;;;;;;;2.03;1.15;;;19.90;53.60;;;;;;5071623;28;20673;-37
2022/08/06 02:53:02;;;;;;;2.90;1.00;;;19.90;53.50;;;;;;5071174;28;20191;-36
2022/08/06 02:55:38;;;;;;;2.72;1.30;;;19.90;53.60;;;;;;5070232;28;20214;-37
2022/08/06 02:58:16;;;;;;;2.97;1.17;;;19.90;53.60;;;;;;5070054;28;20233;-37
2022/08/06 03:00:51;;;;;;;1.73;1.00;;;19.90;53.60;;;;;;5070114;28;20190;-40
2022/08/06 03:03:24;;;;;;;1.98;0.93;;;19.90;53.60;;;;;;5070567;28;20221;-37
2022/08/06 03:05:57;;;;;;;2.40;1.38;;;19.90;53.60;;;;;;5070872;28;20225;-40
2022/08/06 03:08:29;;;;;;;4.07;1.70;;;19.90;53.60;;;;;;5070449;28;20246;-38
2022/08/06 03:11:01;;;;;;;3.20;2.05;;;19.90;54.00;;;;;;5070340;28;20202;-47
2022/08/06 03:13:33;;;;;;;4.88;2.45;;;19.90;53.90;;;;;;5069601;28;20540;-40
2022/08/06 03:16:08;;;;;;;8.13;2.83;;;19.90;54.00;;;;;;5070166;28;20333;-37
2022/08/06 03:18:40;;;;;;;6.90;2.50;;;19.90;54.00;;;;;;5049904;28;20195;-37
2022/08/06 03:21:11;;;;;;;4.38;1.90;;;19.90;54.00;;;;;;5050211;28;20214;-37
2022/08/06 03:23:43;;;;;;;5.28;2.17;;;19.90;54.10;;;;;;5051398;28;20219;-36
2022/08/06 03:26:14;;;;;;;4.90;2.30;;;19.80;54.00;;;;;;5068122;28;20195;-37
2022/08/06 03:28:46;;;;;;;4.43;1.95;;;19.80;54.10;;;;;;5050116;28;20227;-36
2022/08/06 03:31:19;;;;;;;4.05;1.75;;;19.80;54.10;;;;;;5053472;28;20293;-38
2022/08/06 03:33:51;;;;;;;5.55;2.33;;;19.80;54.10;;;;;;5068328;28;20559;-37
2022/08/06 03:36:23;;;;;;;5.10;2.28;;;19.80;54.10;;;;;;5069774;28;20204;-36
2022/08/06 03:38:57;;;;;;;4.78;2.10;;;19.80;54.10;;;;;;5070585;28;20221;-37
2022/08/06 03:41:29;;;;;;;4.00;1.83;;;19.80;54.10;;;;;;5070125;28;20198;-37
2022/08/06 03:44:00;;;;;;;4.78;1.90;;;19.80;54.10;;;;;;5069858;28;20199;-37
2022/08/06 03:46:37;;;;;;;6.53;2.05;;;19.70;54.00;;;;;;5070018;28;20655;-37
2022/08/06 03:49:11;;;;;;;3.65;2.00;;;19.70;54.10;;;;;;5065356;28;20263;-39
2022/08/06 03:51:43;;;;;;;4.75;2.30;;;19.70;54.10;;;;;;5070317;28;20202;-37
2022/08/06 03:54:15;;;;;;;3.97;2.03;;;19.70;54.10;;;;;;5070151;28;20221;-36
2022/08/06 03:56:48;;;;;;;4.50;2.15;;;19.70;54.10;;;;;;5073749;28;20574;-37
2022/08/06 03:59:19;;;;;;;5.63;2.10;;;19.60;54.10;;;;;;5073147;28;20226;-37
2022/08/06 04:01:52;;;;;;;6.53;2.58;;;19.60;54.20;;;;;;5073123;28;20682;-45
2022/08/06 04:04:24;;;;;;;5.35;1.90;;;19.60;54.20;;;;;;5073056;28;20580;-37
2022/08/06 04:06:56;;;;;;;3.92;2.03;;;19.60;54.10;;;;;;5073706;28;20559;-44
2022/08/06 04:09:28;;;;;;;4.38;1.95;;;19.60;54.10;;;;;;5073523;28;20194;-36
2022/08/06 04:12:00;;;;;;;5.53;2.10;;;19.60;54.10;;;;;;5074069;28;20190;-37
2022/08/06 04:14:31;;;;;;;3.33;1.90;;;19.60;54.20;;;;;;5072912;28;20211;-38
2022/08/06 04:17:06;;;;;;;3.10;2.03;;;19.50;54.20;;;;;;5073996;28;20187;-36
2022/08/06 04:19:37;;;;;;;4.10;2.08;;;19.60;54.40;;;;;;5073028;28;20563;-36
2022/08/06 04:22:08;;;;;;;3.97;2.10;;;19.50;54.50;;;;;;5072447;28;20187;-36
2022/08/06 04:24:39;;;;;;;3.72;1.90;;;19.60;54.50;;;;;;5073545;28;20215;-44
2022/08/06 04:27:11;;;;;;;4.70;2.00;;;19.50;54.50;;;;;;5073387;28;20198;-36
2022/08/06 04:29:42;;;;;;;3.55;2.28;;;19.50;54.50;;;;;;5074190;28;20202;-36
2022/08/06 04:32:18;;;;;;;3.15;2.00;;;19.50;54.60;;;;;;5072774;28;20194;-52
2022/08/06 04:34:50;;;;;;;3.10;1.75;;;19.50;54.50;;;;;;5072209;28;20218;-36
2022/08/06 04:37:21;;;;;;;4.82;2.20;;;19.50;54.60;;;;;;5071998;28;20198;-36
2022/08/06 04:39:52;;;;;;;4.25;1.85;;;19.50;54.60;;;;;;5071471;28;20194;-37
2022/08/06 04:42:23;;;;;;;3.83;2.17;;;19.50;54.50;;;;;;5071599;28;20203;-36
2022/08/06 04:44:54;;;;;;;4.97;2.15;;;19.50;54.50;;;;;;5072219;28;20215;-42
2022/08/06 04:47:27;;;;;;;2.97;2.00;;;19.50;54.50;;;;;;5071822;28;20245;-42
2022/08/06 04:49:58;;;;;;;3.08;1.92;;;19.40;54.50;;;;;;5072017;28;20199;-36
2022/08/06 04:52:29;;;;;;;4.05;1.70;;;19.40;54.50;;;;;;5071916;28;20655;-37
2022/08/06 04:55:00;;;;;;;2.90;1.60;;;19.40;54.60;;;;;;5071894;28;20230;-37
2022/08/06 04:57:31;;;;;;;3.30;1.80;;;19.40;54.60;;;;;;5071539;28;20202;-37
2022/08/06 05:00:01;;;;;;;3.75;1.85;;;19.40;54.60;;;;;;5071799;28;20205;-36
2022/08/06 05:02:34;;;;;;;4.47;1.88;;;19.40;54.70;;;;;;5071941;28;20198;-36
2022/08/06 05:05:06;;;;;;;3.30;1.85;;;19.40;54.60;;;;;;5071356;28;20213;-36
2022/08/06 05:07:38;;;;;;;3.88;2.28;;;19.40;54.60;;;;;;5071308;28;20219;-36
2022/08/06 05:10:09;;;;;;;4.57;2.25;;;19.30;54.60;;;;;;5071254;28;20319;-36
2022/08/06 05:12:44;;;;;;;4.70;2.28;;;19.30;54.60;;;;;;5070993;28;20229;-36
2022/08/06 05:15:19;;;;;;;2.47;1.80;;;19.30;54.60;;;;;;5071458;28;20218;-36
2022/08/06 05:17:56;;;;;;;4.35;2.75;;;19.30;54.60;;;;;;5071360;28;20202;-36
2022/08/06 05:20:29;;;;;;;4.25;2.33;;;19.30;55.20;;;;;;5071824;28;20202;-36
2022/08/06 05:23:09;;;;;;;3.42;2.15;;;19.30;54.60;;;;;;5071343;28;20674;-36
2022/08/06 05:25:40;;;;;;;3.78;2.45;;;19.30;54.70;;;;;;5070920;28;20708;-39
2022/08/06 05:28:11;;;;;;;5.47;2.47;;;19.20;54.60;;;;;;5066199;28;20229;-36
2022/08/06 05:30:51;;;;;;;4.57;2.53;;;19.20;54.70;;;;;;5072023;28;20199;-36
2022/08/06 05:33:31;;;;;;;3.38;2.13;;;19.20;54.60;;;;;;5071161;28;20666;-36
2022/08/06 05:36:02;;;;;;;4.30;2.20;;;19.20;54.70;;;;;;5071112;28;20717;-37
2022/08/06 05:38:34;;;;;;;3.13;2.08;;;19.20;54.60;;;;;;5071183;28;20531;-36
2022/08/06 05:41:05;;;;;;;2.17;1.90;;;19.20;54.70;;;;;;5071062;28;20206;-36
2022/08/06 05:43:36;;;;;;;3.90;2.50;;;19.20;54.70;;;;;;5070231;28;20654;-37
2022/08/06 05:46:11;;;;;;;3.65;2.13;;;19.20;54.70;;;;;;5070481;28;20218;-41
2022/08/06 05:48:47;;;;;;;4.60;2.50;;;19.10;54.70;;;;;;5070466;28;20222;-36
2022/08/06 05:51:26;;;;;;;3.33;2.58;;;19.10;54.70;;;;;;5070743;28;20273;-36
2022/08/06 05:54:03;;;;;;;3.47;2.35;;;19.10;54.70;;;;;;5070851;28;20206;-36
2022/08/06 05:56:39;;;;;;;2.85;2.08;;;19.10;54.80;;;;;;5070367;28;20220;-36
2022/08/06 05:59:19;;;;;;;3.45;2.17;;;19.10;54.80;;;;;;5050783;28;20195;-36
2022/08/06 06:01:51;;;;;;;3.67;2.60;;;19.10;54.80;;;;;;5050884;28;20199;-36
2022/08/06 06:04:25;;;;;;;4.15;2.70;;;19.10;54.80;;;;;;5050462;28;20215;-36
2022/08/06 06:06:56;;;;;;;4.95;2.33;;;19.10;54.80;;;;;;5050516;28;20192;-36
2022/08/06 06:09:27;;;;;;;4.30;2.65;;;19.10;54.80;;;;;;5050335;28;20258;-36
2022/08/06 06:11:59;;;;;;;4.38;2.58;;;19.00;54.70;;;;;;5053026;28;20199;-36
2022/08/06 06:14:36;;;;;;;3.13;2.30;;;19.00;54.70;;;;;;5069857;28;20638;-36
2022/08/06 06:17:21;;;;;;;3.88;2.20;;;19.00;54.80;;;;;;5069637;28;20194;-36
2022/08/06 06:20:18;;;;;;;2.95;2.20;;;19.00;54.80;;;;;;5070006;28;20669;-36
2022/08/06 06:22:58;;;;;;;4.00;2.70;;;18.90;54.80;;;;;;5069929;28;20277;-36
2022/08/06 06:25:32;;;;;;;3.88;2.67;;;18.90;54.80;;;;;;5069841;28;20218;-36
2022/08/06 06:28:05;;;;;;;3.15;2.05;;;18.90;54.80;;;;;;5069653;28;20585;-36
2022/08/06 06:30:44;;;;;;;3.70;2.28;;;18.90;54.80;;;;;;5070526;28;20198;-36
2022/08/06 06:33:21;;;;;;;3.42;2.20;;;18.90;54.80;;;;;;5070192;28;20713;-36
2022/08/06 06:35:57;;;;;;;3.10;2.20;;;18.90;54.90;;;;;;5069923;28;20294;-36
2022/08/06 06:38:40;;;;;;;3.78;2.35;;;18.90;54.80;;;;;;5069947;28;20281;-36
2022/08/06 06:41:18;;;;;;;3.03;2.55;;;18.90;54.80;;;;;;5069433;28;20199;-36
2022/08/06 06:43:56;;;;;;;3.28;2.35;;;18.90;54.80;;;;;;5069570;28;20248;-36
2022/08/06 06:46:31;;;;;;;3.90;2.45;;;18.90;54.80;;;;;;5069917;28;20203;-36
2022/08/06 06:49:06;;;;;;;3.35;2.38;;;18.80;54.80;;;;;;5069407;28;20221;-40
2022/08/06 06:51:43;;;;;;;3.38;2.35;;;18.80;54.80;;;;;;5069463;28;20198;-36
2022/08/06 06:54:20;;;;;;;3.30;2.35;;;18.80;54.90;;;;;;5069572;28;20873;-36
2022/08/06 06:56:53;;;;;;;3.10;2.40;;;18.80;54.90;;;;;;5069839;28;20213;-36
2022/08/06 06:59:31;;;;;;;3.55;2.60;;;18.80;54.90;;;;;;5049551;28;20191;-37
2022/08/06 07:02:02;;;;;;;4.82;2.40;;;18.80;54.90;;;;;;5049749;28;20203;-36
2022/08/06 07:04:34;;;;;;;3.20;2.28;;;18.70;54.90;;;;;;5049190;28;20235;-36
2022/08/06 07:07:08;;;;;;;4.60;2.80;;;18.80;54.90;;;;;;5048979;28;20567;-36
2022/08/06 07:09:40;;;;;;;3.50;2.63;;;18.70;54.90;;;;;;5049469;28;20725;-36
2022/08/06 07:12:12;;;;;;;3.30;2.25;;;18.70;54.90;;;;;;5051338;28;20614;-36
2022/08/06 07:14:45;;;;;;;2.42;2.05;;;18.70;54.90;;;;;;5069621;28;20678;-37
2022/08/06 07:17:18;;;;;;;3.85;2.63;;;18.70;54.90;;;;;;5069389;28;20261;-36
2022/08/06 07:19:51;;;;;;;5.07;2.50;;;18.70;54.90;;;;;;5069333;28;20201;-36
2022/08/06 07:22:26;;;;;;;4.50;2.90;;;18.70;54.90;;;;;;5069508;28;20225;-44
2022/08/06 07:25:00;;;;;;;3.05;2.58;;;18.70;55.00;;;;;;5069792;28;20214;-36
2022/08/06 07:27:35;;;;;;;3.40;2.40;;;18.70;55.00;;;;;;5068986;28;20201;-37
2022/08/06 07:30:07;;;;;;;2.40;2.10;;;18.60;54.90;;;;;;5072532;28;20708;-36
2022/08/06 07:32:39;;;;;;;3.75;2.65;;;18.60;54.90;;;;;;5073419;28;20202;-39
2022/08/06 07:35:12;;;;;;;2.42;2.20;;;18.60;55.00;;;;;;5072888;28;20733;-36
2022/08/06 07:37:51;;;;;;;3.28;2.53;;;18.60;54.90;;;;;;5073254;28;20230;-38
2022/08/06 07:40:28;;;;;;;4.55;2.65;;;18.60;54.90;;;;;;5073338;28;20233;-36
2022/08/06 07:43:03;;;;;;;3.65;2.55;;;18.60;54.90;;;;;;5072659;28;20667;-42
2022/08/06 07:45:35;;;;;;;3.42;2.78;;;18.60;55.00;;;;;;5072614;28;20210;-36
2022/08/06 07:48:12;;;;;;;3.75;2.25;;;18.60;55.00;;;;;;5073296;28;20206;-36
2022/08/06 07:50:45;;;;;;;3.45;2.70;;;18.60;55.00;;;;;;5073558;28;20244;-36
2022/08/06 07:53:19;;;;;;;3.95;2.53;;;18.50;54.90;;;;;;5073163;28;20194;-36
2022/08/06 07:55:50;;;;;;;3.33;2.47;;;18.50;55.00;;;;;;5072586;28;20643;-36
2022/08/06 07:58:22;;;;;;;2.70;2.20;;;18.50;55.00;;;;;;5072562;28;20199;-36
2022/08/06 08:00:52;;;;;;;3.13;2.30;;;18.50;55.00;;;;;;5073090;28;20744;-36
2022/08/06 08:06:21;;;;;;;3.00;2.60;;;18.50;55.00;;;;;;5073339;28;20218;-36
2022/08/06 08:08:56;;;;;;;3.60;2.60;;;18.50;55.00;;;;;;5073364;28;20234;-36
2022/08/06 08:11:28;;;;;;;3.95;2.55;;;18.50;55.00;;;;;;5072714;28;20191;-38
2022/08/06 08:14:00;;;;;;;3.40;2.80;;;18.50;54.90;;;;;;5072033;28;20202;-36
2022/08/06 08:16:31;;;;;;;3.13;2.38;;;18.50;55.00;;;;;;5072143;28;20187;-37
2022/08/06 08:19:02;;;;;;;2.70;2.25;;;18.50;55.00;;;;;;5072336;28;20290;-36
2022/08/06 08:21:33;;;;;;;3.28;2.45;;;18.40;55.00;;;;;;5072599;28;20674;-38
2022/08/06 08:24:06;;;;;;;3.67;2.42;;;18.40;55.00;;;;;;5072599;28;20199;-44
2022/08/06 08:26:37;;;;;;;3.55;2.38;;;18.40;55.00;;;;;;5072800;28;20206;-44
2022/08/06 08:29:09;;;;;;;3.13;2.45;;;18.40;55.10;;;;;;5072624;28;20214;-44
2022/08/06 08:31:40;;;;;;;4.28;2.65;;;18.40;55.10;;;;;;5073293;28;20229;-44
2022/08/06 08:34:11;;;;;;;2.88;2.30;;;18.40;55.10;;;;;;5072665;28;20633;-44
2022/08/06 08:36:45;;;;;;;3.55;2.33;;;18.40;55.10;;;;;;5072262;28;20195;-36
2022/08/06 08:39:17;;;;;;;3.20;2.47;;;18.40;55.10;;;;;;5072321;28;20575;-36
2022/08/06 08:41:49;;;;;;;3.25;2.60;;;18.40;55.10;;;;;;5071349;28;20195;-37
2022/08/06 08:44:25;;;;;;;3.08;2.47;;;18.40;55.00;;;;;;5071654;28;20573;-36
2022/08/06 08:46:58;;;;;;;3.35;2.50;;;18.40;55.00;;;;;;5071739;28;20202;-36
2022/08/06 08:49:33;;;;;;;3.67;2.70;;;18.40;55.10;;;;;;5071793;28;20230;-49
2022/08/06 08:52:05;;;;;;;3.92;2.80;;;18.40;55.10;;;;;;5069924;28;20191;-36
2022/08/06 08:54:40;;;;;;;3.40;2.38;;;18.30;55.00;;;;;;5073692;28;20348;-37
2022/08/06 08:57:12;;;;;;;3.10;2.70;;;18.30;55.60;;;;;;5070564;28;20560;-36
2022/08/06 08:59:44;;;;;;;2.60;2.28;;;18.30;55.00;;;;;;5052397;28;20207;-54
2022/08/06 09:02:16;;;;;;;3.38;2.50;;;18.30;55.10;;;;;;5071304;28;20199;-42
2022/08/06 09:04:48;;;;;;;2.95;2.30;;;18.30;55.10;;;;;;5053322;28;20290;-37
2022/08/06 09:07:19;;;;;;;3.20;2.70;;;18.30;55.10;;;;;;5052338;28;20203;-46
2022/08/06 09:09:52;;;;;;;3.60;2.60;;;18.30;55.10;;;;;;5068495;28;20629;-45
2022/08/06 09:12:24;;;;;;;3.65;2.88;;;18.30;55.10;;;;;;5071991;28;20195;-40
2022/08/06 09:14:55;;;;;;;4.47;2.88;;;18.30;55.10;;;;;;5071185;28;20225;-36
2022/08/06 09:17:26;;;;;;;3.40;2.58;;;18.30;55.10;;;;;;5072983;28;20538;-36
2022/08/06 09:19:56;;;;;;;4.50;2.72;;;18.30;55.10;;;;;;5072160;28;20195;-36
2022/08/06 09:22:27;;;;;;;3.28;2.70;;;18.30;55.10;;;;;;5072119;28;20190;-40
2022/08/06 09:25:00;;;;;;;3.08;2.72;;;18.30;55.20;;;;;;5072337;28;20701;-36
2022/08/06 09:27:37;;;;;;;4.35;3.20;;;18.30;55.20;;;;;;5072536;28;20194;-36
2022/08/06 09:30:09;;;;;;;3.30;2.95;;;18.20;55.10;;;;;;5072229;28;20277;-36
2022/08/06 09:32:44;;;;;;;4.07;3.08;;;18.30;55.20;;;;;;5072086;28;20206;-44
2022/08/06 09:35:25;;;;;;;3.53;2.88;;;18.20;55.20;;;;;;5072441;28;20237;-44
2022/08/06 09:38:04;;;;;;;3.03;2.70;;;18.20;55.20;;;;;;5072368;28;20193;-36
2022/08/06 09:40:36;;;;;;;3.45;2.67;;;18.20;55.20;;;;;;5071670;28;20638;-37
2022/08/06 09:43:07;;;;;;;4.40;3.15;;;18.20;55.20;;;;;;5071042;28;20193;-36
2022/08/06 09:45:46;;;;;;;3.78;2.88;;;18.20;55.20;;;;;;5061472;28;20215;-43
2022/08/06 09:48:17;;;;;;;3.80;2.97;;;18.20;55.20;;;;;;5062955;28;20634;-36
2022/08/06 09:50:48;;;;;;;3.22;2.80;;;18.20;55.20;;;;;;5092015;28;20230;-36
2022/08/06 09:53:21;;;;;;;3.00;2.70;;;18.20;55.20;;;;;;5090637;28;20186;-36
2022/08/06 09:55:55;;;;;;;4.15;3.13;;;18.20;55.20;;;;;;5091752;28;20218;-36
2022/08/06 09:58:37;;;;;;;4.50;3.08;;;18.20;55.20;;;;;;5070986;28;20191;-36
2022/08/06 10:01:18;;;;;;;4.43;3.35;;;18.10;55.20;;;;;;5072208;28;20198;-37
2022/08/06 10:03:49;;;;;;;3.95;3.15;;;18.10;55.20;;;;;;5071901;28;20213;-36
2022/08/06 10:06:20;;;;;;;3.15;2.78;;;18.10;55.20;;;;;;5071322;28;20206;-36
2022/08/06 10:08:52;;;;;;;4.40;2.88;;;18.10;55.30;;;;;;5071982;28;20195;-39
2022/08/06 10:11:39;;;;;;;4.10;3.28;;;18.10;55.30;;;;;;5071811;28;20202;-36
2022/08/06 10:14:24;;;;;;;3.45;3.10;;;18.10;55.30;;;;;;5067098;28;20651;-36
2022/08/06 10:17:11;;;;;;;3.92;2.85;;;18.10;55.30;;;;;;5066690;28;20199;-36
2022/08/06 10:19:43;;;;;;;3.22;2.80;;;18.10;55.20;;;;;;5071908;28;20202;-36
2022/08/06 10:22:15;;;;;;;3.10;2.80;;;18.10;55.20;;;;;;5070642;28;20201;-36
2022/08/06 10:24:47;;;;;;;4.32;2.85;;;18.10;55.30;;;;;;5071799;28;20218;-36
2022/08/06 10:27:22;;;;;;;4.03;2.95;;;18.10;55.30;;;;;;5070666;28;20658;-35
2022/08/06 10:29:54;;;;;;;3.33;2.92;;;18.10;55.40;;;;;;5071641;28;20584;-39
2022/08/06 10:32:28;;;;;;;3.53;2.80;;;18.10;55.40;;;;;;5069659;28;20198;-36
2022/08/06 10:35:03;;;;;;;4.07;2.95;;;18.10;55.50;;;;;;5064952;28;20239;-37
2022/08/06 10:37:38;;;;;;;3.58;2.83;;;18.10;55.50;;;;;;5050857;28;20191;-36
2022/08/06 10:40:11;;;;;;;3.28;2.60;;;18.10;55.50;;;;;;5069621;28;20190;-36
2022/08/06 10:42:47;;;;;;;3.47;2.67;;;18.10;55.50;;;;;;5070324;28;20207;-36
2022/08/06 10:45:18;;;;;;;4.13;2.97;;;18.10;55.50;;;;;;5063334;28;20211;-36
2022/08/06 10:47:49;;;;;;;4.40;3.00;;;18.10;55.50;;;;;;5050219;28;20195;-37
2022/08/06 10:50:20;;;;;;;3.17;2.67;;;18.10;55.50;;;;;;5069621;28;20234;-36
2022/08/06 10:52:52;;;;;;;3.35;2.78;;;18.00;55.40;;;;;;5069929;28;20195;-36
2022/08/06 10:55:23;;;;;;;3.00;2.70;;;18.00;55.50;;;;;;5070900;28;20241;-36
2022/08/06 10:57:56;;;;;;;4.20;2.72;;;18.00;55.50;;;;;;5071245;28;20207;-36
2022/08/06 11:00:27;;;;;;;3.85;2.83;;;18.00;55.50;;;;;;5070503;28;20198;-36
2022/08/06 11:03:09;;;;;;;2.75;2.50;;;18.00;55.60;;;;;;5071057;28;20210;-36
2022/08/06 11:05:41;;;;;;;3.58;3.08;;;18.00;55.60;;;;;;5070575;28;20228;-36
2022/08/06 11:08:35;;;;;;;3.22;2.72;;;18.00;55.60;;;;;;5070843;28;20214;-46
2022/08/06 11:11:35;;;;;;;3.72;2.85;;;18.00;55.60;;;;;;5071463;28;20222;-41
2022/08/06 11:14:11;;;;;;;4.28;3.25;;;18.00;55.60;;;;;;5069457;28;20194;-36
2022/08/06 11:16:42;;;;;;;3.40;2.80;;;18.00;55.50;;;;;;5069538;28;20487;-37
2022/08/06 11:19:14;;;;;;;3.03;2.60;;;18.00;55.60;;;;;;5069587;28;20199;-37
2022/08/06 11:21:46;;;;;;;3.60;3.00;;;18.00;55.60;;;;;;5069262;28;20207;-41
2022/08/06 11:24:18;;;;;;;3.60;3.25;;;18.00;55.60;;;;;;5088742;28;20210;-36
2022/08/06 11:26:48;;;;;;;4.22;2.75;;;18.00;55.60;;;;;;5081095;28;20206;-44
2022/08/06 11:29:21;;;;;;;2.95;2.67;;;18.00;55.60;;;;;;5069689;28;20195;-49
2022/08/06 11:31:52;;;;;;;3.30;2.55;;;18.00;55.60;;;;;;5070127;28;20194;-37
2022/08/06 11:34:23;;;;;;;3.15;2.75;;;17.90;55.60;;;;;;5069725;28;20689;-42
2022/08/06 11:36:59;;;;;;;3.50;2.80;;;17.90;55.70;;;;;;5069661;28;20191;-39
2022/08/06 11:39:30;;;;;;;3.20;2.80;;;17.90;55.70;;;;;;5049841;28;20268;-43
2022/08/06 11:42:03;;;;;;;3.65;2.90;;;17.90;55.70;;;;;;5049610;28;20210;-41
2022/08/06 11:44:36;;;;;;;3.03;2.72;;;17.90;55.70;;;;;;5051348;28;20211;-37
2022/08/06 11:47:12;;;;;;;3.30;3.00;;;17.90;55.70;;;;;;5069059;28;20202;-46
2022/08/06 11:49:44;;;;;;;2.83;2.53;;;17.90;55.70;;;;;;5069598;28;20222;-37
2022/08/06 11:53:22;;;;;;;3.70;2.65;;;17.90;55.60;;;;;;5069217;28;20205;-47
2022/08/06 11:59:15;;;;;;;3.17;2.72;;;17.90;55.60;;;;;;5066094;28;20269;-47
2022/08/06 12:01:51;;;;;;;3.10;2.72;;;17.90;55.70;;;;;;5069629;28;20207;-40
2022/08/06 12:04:42;;;;;;;4.85;2.60;;;17.90;55.70;;;;;;5069410;28;20229;-42
2022/08/06 12:07:22;;;;;;;3.28;2.67;;;17.80;55.70;;;;;;5061403;28;20252;-38
2022/08/06 12:10:03;;;;;;;2.60;2.20;;;17.80;55.70;;;;;;5048896;28;20310;-36
2022/08/06 12:12:39;;;;;;;3.00;2.40;;;17.80;55.70;;;;;;5048942;28;20206;-41
2022/08/06 12:15:38;;;;;;;2.90;2.40;;;17.80;55.80;;;;;;5048749;28;20247;-42
2022/08/06 12:18:11;;;;;;;3.22;2.60;;;17.80;55.80;;;;;;5052652;28;20282;-37
2022/08/06 12:20:43;;;;;;;3.70;2.72;;;17.80;55.70;;;;;;5052711;28;20199;-37
2022/08/06 12:23:14;;;;;;;3.22;2.55;;;17.80;55.70;;;;;;5059985;28;20202;-40
2022/08/06 12:25:47;;;;;;;2.88;2.28;;;17.80;55.80;;;;;;5072289;28;20228;-37
2022/08/06 12:28:20;;;;;;;2.97;2.67;;;17.80;55.80;;;;;;5072823;28;20199;-45
2022/08/06 12:30:51;;;;;;;3.30;3.00;;;17.80;55.70;;;;;;5072939;28;20230;-37
2022/08/06 12:33:25;;;;;;;3.10;2.80;;;17.80;55.80;;;;;;5072810;28;20240;-37
2022/08/06 12:35:56;;;;;;;2.97;2.67;;;17.80;55.80;;;;;;5072314;28;20705;-42
2022/08/06 12:38:30;;;;;;;2.83;2.42;;;17.80;55.90;;;;;;5072185;28;20557;-41
2022/08/06 12:41:02;;;;;;;3.58;2.22;;;17.80;55.90;;;;;;5072062;28;20202;-40
2022/08/06 12:43:34;;;;;;;3.63;2.50;;;17.80;55.80;;;;;;5071958;28;20195;-48
2022/08/06 12:46:07;;;;;;;2.80;2.47;;;17.80;55.90;;;;;;5072519;28;20256;-37
2022/08/06 12:48:46;;;;;;;2.22;2.03;;;17.80;55.90;;;;;;5072483;28;20205;-37
2022/08/06 12:51:18;;;;;;;2.47;2.20;;;17.80;55.90;;;;;;5072082;28;20254;-36
2022/08/06 12:53:52;;;;;;;2.42;2.22;;;17.80;55.80;;;;;;5071909;28;20203;-37
2022/08/06 12:56:25;;;;;;;3.03;2.63;;;17.70;55.80;;;;;;5071956;28;20190;-49
2022/08/06 12:58:57;;;;;;;2.60;2.40;;;17.70;55.80;;;;;;5072091;28;20573;-42
2022/08/06 13:01:30;;;;;;;3.17;2.55;;;17.70;55.80;;;;;;5072051;28;20199;-40
2022/08/06 13:04:04;;;;;;;3.15;2.30;;;17.70;55.90;;;;;;5072332;28;20208;-36
2022/08/06 13:06:37;;;;;;;4.18;2.53;;;17.70;55.90;;;;;;5072285;28;20238;-47
2022/08/06 13:09:08;;;;;;;2.97;2.50;;;17.70;55.90;;;;;;5071931;28;20237;-44
2022/08/06 13:11:39;;;;;;;2.95;2.30;;;17.70;55.90;;;;;;5071395;28;20237;-37
2022/08/06 13:14:14;;;;;;;3.03;2.45;;;17.70;55.90;;;;;;5071316;28;20677;-37
2022/08/06 13:16:47;;;;;;;2.83;2.53;;;17.70;55.90;;;;;;5071665;28;20198;-36
2022/08/06 13:19:21;;;;;;;2.78;2.25;;;17.70;55.90;;;;;;5071875;28;20194;-46
2022/08/06 13:22:03;;;;;;;2.75;2.13;;;17.70;55.90;;;;;;5071618;28;20569;-37
2022/08/06 13:24:34;;;;;;;2.70;2.40;;;17.70;55.90;;;;;;5071666;28;20250;-42
2022/08/06 13:27:05;;;;;;;2.88;2.38;;;17.60;55.80;;;;;;5071298;28;20203;-40
2022/08/06 13:29:35;;;;;;;2.33;2.13;;;17.60;55.90;;;;;;5071168;28;20198;-37